Time,TemperatureF,DewpointF,PressureIn,WindDirection,WindDirectionDegrees,WindSpeedMPH,WindSpeedGustMPH,Humidity,HourlyPrecipIn,Conditions,Clouds,dailyrainin,SoftwareType,DateUTC
2013-07-28 00:02:00,70.0,44.0,29.59,NNE,13,1.0,6.0,39,0.00,,,0.00,,2013-07-28 06:02:00,
2013-07-28 00:12:00,70.0,44.0,29.59,NNE,13,1.0,6.0,39,0.00,,,0.00,,2013-07-28 06:12:00,
2013-07-28 00:22:00,69.0,44.0,29.59,West,269,5.0,6.0,41,0.00,,,0.00,,2013-07-28 06:22:00,
2013-07-28 00:32:00,69.0,44.0,29.59,West,259,4.0,8.0,40,0.00,,,0.00,,2013-07-28 06:32:00,
2013-07-28 00:42:00,69.0,44.0,29.59,West,259,4.0,8.0,40,0.00,,,0.00,,2013-07-28 06:42:00,
2013-07-28 00:53:00,68.0,45.0,29.58,NW,315,5.0,7.0,43,0.00,,,0.00,,2013-07-28 06:53:00,
2013-07-28 01:02:00,67.0,44.0,29.57,WSW,255,4.0,7.0,43,0.00,,,0.00,,2013-07-28 07:02:00,
2013-07-28 01:12:00,67.0,44.0,29.57,WSW,255,4.0,7.0,43,0.00,,,0.00,,2013-07-28 07:12:00,
2013-07-28 01:22:00,68.0,43.0,29.56,SSW,207,3.0,6.0,41,0.00,,,0.00,,2013-07-28 07:22:00,
2013-07-28 01:32:00,71.0,43.0,29.55,SSW,200,7.0,12.0,37,0.00,,,0.00,,2013-07-28 07:32:00,
2013-07-28 01:43:00,71.0,43.0,29.55,SSW,200,7.0,12.0,37,0.00,,,0.00,,2013-07-28 07:43:00,
2013-07-28 01:53:00,72.0,43.0,29.55,SW,217,5.0,9.0,35,0.00,,,0.00,,2013-07-28 07:53:00,
2013-07-28 02:02:00,72.0,43.0,29.55,ESE,117,3.0,8.0,35,0.00,,,0.00,,2013-07-28 08:02:00,
2013-07-28 02:12:00,72.0,43.0,29.55,ESE,117,3.0,8.0,35,0.00,,,0.00,,2013-07-28 08:12:00,
2013-07-28 02:22:00,68.0,42.0,29.54,SSW,203,1.0,4.0,39,0.00,,,0.00,,2013-07-28 08:22:00,
2013-07-28 02:33:00,70.0,42.0,29.53,SSW,196,5.0,10.0,36,0.00,,,0.00,,2013-07-28 08:33:00,
2013-07-28 02:42:00,70.0,42.0,29.53,SSW,196,5.0,10.0,36,0.00,,,0.00,,2013-07-28 08:42:00,
2013-07-28 02:53:00,69.0,43.0,29.53,NE,47,3.0,5.0,39,0.00,,,0.00,,2013-07-28 08:53:00,
2013-07-28 03:02:00,68.0,42.0,29.53,West,278,1.0,4.0,39,0.00,,,0.00,,2013-07-28 09:02:00,
2013-07-28 03:12:00,68.0,42.0,29.53,West,278,1.0,4.0,39,0.00,,,0.00,,2013-07-28 09:12:00,
2013-07-28 03:22:00,68.0,42.0,29.53,West,278,1.0,4.0,39,0.00,,,0.00,,2013-07-28 09:22:00,
2013-07-28 03:32:00,66.0,43.0,29.53,WSW,248,0.0,3.0,43,0.00,,,0.00,,2013-07-28 09:32:00,
2013-07-28 03:43:00,66.0,43.0,29.53,WSW,248,0.0,3.0,43,0.00,,,0.00,,2013-07-28 09:43:00,
2013-07-28 03:53:00,65.0,44.0,29.52,NNW,333,2.0,7.0,46,0.00,,,0.00,,2013-07-28 09:53:00,
2013-07-28 04:02:00,65.0,43.0,29.52,WNW,290,6.0,7.0,44,0.00,,,0.00,,2013-07-28 10:02:00,
2013-07-28 04:12:00,65.0,43.0,29.52,WNW,290,6.0,7.0,44,0.00,,,0.00,,2013-07-28 10:12:00,
2013-07-28 04:22:00,65.0,43.0,29.52,West,270,4.0,7.0,44,0.00,,,0.00,,2013-07-28 10:22:00,
2013-07-28 04:32:00,65.0,42.0,29.52,West,269,5.0,7.0,43,0.00,,,0.00,,2013-07-28 10:32:00,
2013-07-28 04:42:00,65.0,42.0,29.52,West,269,5.0,7.0,43,0.00,,,0.00,,2013-07-28 10:42:00,
2013-07-28 04:53:00,66.0,42.0,29.52,West,275,4.0,6.0,42,0.00,,,0.00,,2013-07-28 10:53:00,
2013-07-28 05:02:00,66.0,42.0,29.52,West,275,4.0,6.0,42,0.00,,,0.00,,2013-07-28 11:02:00,
2013-07-28 05:12:00,67.0,43.0,29.52,WNW,291,4.0,6.0,41,0.00,,,0.00,,2013-07-28 11:12:00,
2013-07-28 05:22:00,67.0,43.0,29.52,West,277,3.0,5.0,41,0.00,,,0.00,,2013-07-28 11:22:00,
2013-07-28 05:33:00,66.0,42.0,29.52,West,272,4.0,7.0,41,0.00,,,0.00,,2013-07-28 11:33:00,
2013-07-28 05:43:00,66.0,42.0,29.52,West,272,4.0,7.0,41,0.00,,,0.00,,2013-07-28 11:43:00,
2013-07-28 05:54:00,66.0,42.0,29.52,West,266,1.0,5.0,42,0.00,,,0.00,,2013-07-28 11:54:00,
2013-07-28 06:02:00,65.0,43.0,29.52,ENE,60,2.0,6.0,45,0.00,,,0.00,,2013-07-28 12:02:00,
2013-07-28 06:12:00,65.0,43.0,29.52,ENE,60,2.0,6.0,45,0.00,,,0.00,,2013-07-28 12:12:00,
2013-07-28 06:22:00,64.0,44.0,29.52,WSW,238,3.0,4.0,48,0.00,,,0.00,,2013-07-28 12:22:00,
2013-07-28 06:33:00,64.0,44.0,29.52,SSW,202,1.0,3.0,48,0.00,,,0.00,,2013-07-28 12:33:00,
2013-07-28 06:43:00,64.0,44.0,29.52,SSW,202,1.0,3.0,48,0.00,,,0.00,,2013-07-28 12:43:00,
2013-07-28 06:53:00,64.0,44.0,29.52,West,262,0.0,3.0,48,0.00,,,0.00,,2013-07-28 12:53:00,
2013-07-28 07:12:00,64.0,44.0,29.52,West,262,0.0,1.0,49,0.00,,,0.00,,2013-07-28 13:12:00,
2013-07-28 07:22:00,65.0,44.0,29.52,WSW,246,0.0,4.0,46,0.00,,,0.00,,2013-07-28 13:22:00,
2013-07-28 07:32:00,66.0,44.0,29.52,West,267,3.0,6.0,45,0.00,,,0.00,,2013-07-28 13:32:00,
2013-07-28 07:43:00,66.0,44.0,29.52,West,267,3.0,6.0,45,0.00,,,0.00,,2013-07-28 13:43:00,
2013-07-28 07:53:00,67.0,44.0,29.53,West,280,3.0,5.0,44,0.00,,,0.00,,2013-07-28 13:53:00,
2013-07-28 08:02:00,68.0,45.0,29.52,WNW,285,2.0,5.0,44,0.00,,,0.00,,2013-07-28 14:02:00,
2013-07-28 08:12:00,68.0,45.0,29.52,WNW,285,2.0,5.0,44,0.00,,,0.00,,2013-07-28 14:12:00,
2013-07-28 08:23:00,68.0,46.0,29.53,ENE,77,0.0,3.0,45,0.00,,,0.00,,2013-07-28 14:23:00,
2013-07-28 08:33:00,66.0,50.0,29.53,NE,55,2.0,4.0,57,0.00,,,0.00,,2013-07-28 14:33:00,
2013-07-28 08:43:00,66.0,50.0,29.53,NE,55,2.0,4.0,57,0.00,,,0.00,,2013-07-28 14:43:00,
2013-07-28 08:53:00,65.0,48.0,29.53,East,80,2.0,3.0,54,0.00,,,0.00,,2013-07-28 14:53:00,
2013-07-28 09:02:00,66.0,48.0,29.53,SE,128,0.0,2.0,52,0.00,,,0.00,,2013-07-28 15:02:00,
2013-07-28 09:12:00,66.0,48.0,29.53,SE,128,0.0,2.0,52,0.00,,,0.00,,2013-07-28 15:12:00,
2013-07-28 09:22:00,67.0,47.0,29.54,ESE,113,0.0,0.0,49,0.00,,,0.00,,2013-07-28 15:22:00,
2013-07-28 09:32:00,68.0,48.0,29.53,ESE,113,0.0,0.0,49,0.00,,,0.00,,2013-07-28 15:32:00,
2013-07-28 09:43:00,68.0,48.0,29.53,ESE,113,0.0,0.0,49,0.00,,,0.00,,2013-07-28 15:43:00,
2013-07-28 09:53:00,70.0,46.0,29.54,NE,56,2.0,4.0,43,0.00,,,0.00,,2013-07-28 15:53:00,
2013-07-28 10:02:00,72.0,48.0,29.53,ENE,73,0.0,4.0,42,0.00,,,0.00,,2013-07-28 16:02:00,
2013-07-28 10:12:00,72.0,48.0,29.53,ENE,73,0.0,4.0,42,0.00,,,0.00,,2013-07-28 16:12:00,
2013-07-28 10:22:00,73.0,47.0,29.53,East,90,2.0,6.0,39,0.00,,,0.00,,2013-07-28 16:22:00,
2013-07-28 10:33:00,73.0,47.0,29.53,NE,38,7.0,13.0,40,0.00,,,0.00,,2013-07-28 16:33:00,
2013-07-28 10:43:00,73.0,47.0,29.53,NE,38,7.0,13.0,40,0.00,,,0.00,,2013-07-28 16:43:00,
2013-07-28 10:52:00,72.0,46.0,29.53,NNE,24,7.0,10.0,40,0.00,,,0.00,,2013-07-28 16:52:00,
2013-07-28 11:02:00,73.0,48.0,29.53,NNE,18,6.0,11.0,41,0.00,,,0.00,,2013-07-28 17:02:00,
2013-07-28 11:12:00,73.0,48.0,29.53,NNE,18,6.0,11.0,41,0.00,,,0.00,,2013-07-28 17:12:00,
2013-07-28 11:22:00,74.0,47.0,29.52,NE,36,7.0,14.0,38,0.00,,,0.00,,2013-07-28 17:22:00,
2013-07-28 11:32:00,73.0,47.0,29.52,NE,43,6.0,15.0,39,0.00,,,0.00,,2013-07-28 17:32:00,
2013-07-28 11:43:00,73.0,47.0,29.52,NE,43,6.0,15.0,39,0.00,,,0.00,,2013-07-28 17:43:00,
2013-07-28 11:53:00,75.0,46.0,29.52,NNE,26,6.0,13.0,36,0.00,,,0.00,,2013-07-28 17:53:00,
2013-07-28 12:03:00,76.0,46.0,29.52,NE,42,8.0,15.0,34,0.00,,,0.00,,2013-07-28 18:03:00,
2013-07-28 12:12:00,76.0,46.0,29.52,NE,42,8.0,15.0,34,0.00,,,0.00,,2013-07-28 18:12:00,
2013-07-28 12:22:00,76.0,46.0,29.50,ENE,73,6.0,14.0,34,0.00,,,0.00,,2013-07-28 18:22:00,
2013-07-28 12:33:00,77.0,45.0,29.50,NE,53,9.0,14.0,32,0.00,,,0.00,,2013-07-28 18:33:00,
2013-07-28 12:43:00,77.0,45.0,29.50,NE,53,9.0,14.0,32,0.00,,,0.00,,2013-07-28 18:43:00,
2013-07-28 12:52:00,78.0,46.0,29.50,NNE,15,12.0,16.0,32,0.00,,,0.00,,2013-07-28 18:52:00,
2013-07-28 13:02:00,77.0,44.0,29.51,NW,307,11.0,16.0,31,0.00,,,0.00,,2013-07-28 19:02:00,
2013-07-28 13:12:00,77.0,44.0,29.51,NW,307,11.0,16.0,31,0.00,,,0.00,,2013-07-28 19:12:00,
2013-07-28 13:22:00,77.0,44.0,29.51,NW,307,11.0,16.0,31,0.00,,,0.00,,2013-07-28 19:22:00,
2013-07-28 13:33:00,74.0,47.0,29.52,NNW,348,7.0,13.0,38,0.00,,,0.00,,2013-07-28 19:33:00,
2013-07-28 13:43:00,74.0,47.0,29.52,NNW,348,7.0,13.0,38,0.00,,,0.00,,2013-07-28 19:43:00,
2013-07-28 13:52:00,73.0,50.0,29.52,NW,313,9.0,12.0,44,0.00,,,0.00,,2013-07-28 19:52:00,
2013-07-28 14:12:00,69.0,55.0,29.52,West,277,7.0,12.0,60,0.00,,,0.00,,2013-07-28 20:12:00,
2013-07-28 14:23:00,68.0,54.0,29.54,West,259,9.0,14.0,60,0.01,,,0.01,,2013-07-28 20:23:00,
2013-07-28 14:33:00,68.0,51.0,29.52,West,271,8.0,11.0,55,0.02,,,0.02,,2013-07-28 20:33:00,
2013-07-28 14:43:00,68.0,51.0,29.52,West,271,8.0,11.0,55,0.02,,,0.02,,2013-07-28 20:43:00,
2013-07-28 14:53:00,71.0,50.0,29.52,WNW,298,5.0,10.0,47,0.02,,,0.02,,2013-07-28 20:53:00,
2013-07-28 15:02:00,72.0,50.0,29.51,NNW,346,4.0,6.0,46,0.02,,,0.02,,2013-07-28 21:02:00,
2013-07-28 15:12:00,72.0,50.0,29.51,NNW,346,4.0,6.0,46,0.02,,,0.02,,2013-07-28 21:12:00,
2013-07-28 15:22:00,73.0,50.0,29.51,NNW,331,10.0,13.0,45,0.01,,,0.02,,2013-07-28 21:22:00,
2013-07-28 15:33:00,74.0,47.0,29.52,NW,317,10.0,14.0,39,0.00,,,0.02,,2013-07-28 21:33:00,
2013-07-28 15:44:00,74.0,47.0,29.52,NW,317,10.0,14.0,39,0.00,,,0.02,,2013-07-28 21:44:00,
2013-07-28 15:52:00,72.0,46.0,29.52,NW,324,5.0,9.0,40,0.00,,,0.02,,2013-07-28 21:52:00,
2013-07-28 16:02:00,71.0,43.0,29.52,North,360,9.0,14.0,37,0.00,,,0.02,,2013-07-28 22:02:00,
2013-07-28 16:12:00,71.0,43.0,29.52,North,360,9.0,14.0,37,0.00,,,0.02,,2013-07-28 22:12:00,
2013-07-28 16:22:00,70.0,45.0,29.52,North,5,8.0,13.0,40,0.00,,,0.02,,2013-07-28 22:22:00,
2013-07-28 16:32:00,70.0,45.0,29.52,NNW,344,8.0,12.0,40,0.00,,,0.02,,2013-07-28 22:32:00,
2013-07-28 16:43:00,70.0,45.0,29.52,NNW,344,8.0,12.0,40,0.00,,,0.02,,2013-07-28 22:43:00,
2013-07-28 16:52:00,69.0,48.0,29.53,NNW,339,8.0,14.0,48,0.00,,,0.02,,2013-07-28 22:52:00,
2013-07-28 17:03:00,69.0,47.0,29.53,NNW,341,5.0,8.0,45,0.00,,,0.02,,2013-07-28 23:03:00,
2013-07-28 17:12:00,69.0,47.0,29.53,NNW,341,5.0,8.0,45,0.00,,,0.02,,2013-07-28 23:12:00,
2013-07-28 17:22:00,69.0,46.0,29.54,South,173,6.0,8.0,44,0.00,,,0.02,,2013-07-28 23:22:00,
2013-07-28 17:32:00,70.0,49.0,29.55,SSE,167,5.0,10.0,47,0.00,,,0.02,,2013-07-28 23:32:00,
2013-07-28 17:43:00,70.0,49.0,29.55,SSE,167,5.0,10.0,47,0.00,,,0.02,,2013-07-28 23:43:00,
2013-07-28 17:53:00,70.0,49.0,29.57,South,176,10.0,18.0,47,0.00,,,0.02,,2013-07-28 23:53:00,
2013-07-28 18:02:00,68.0,48.0,29.55,ESE,121,3.0,12.0,49,0.00,,,0.02,,2013-07-29 00:02:00,
2013-07-28 18:22:00,68.0,48.0,29.54,SSE,158,5.0,7.0,48,0.00,,,0.02,,2013-07-29 00:22:00,
2013-07-28 18:32:00,68.0,48.0,29.52,South,169,5.0,8.0,48,0.00,,,0.02,,2013-07-29 00:32:00,
2013-07-28 18:43:00,68.0,48.0,29.52,South,169,5.0,8.0,48,0.00,,,0.02,,2013-07-29 00:43:00,
2013-07-28 18:52:00,69.0,47.0,29.52,SSE,164,7.0,10.0,46,0.00,,,0.02,,2013-07-29 00:52:00,
2013-07-28 19:02:00,70.0,48.0,29.51,South,184,10.0,17.0,45,0.00,,,0.02,,2013-07-29 01:02:00,
2013-07-28 19:12:00,70.0,48.0,29.51,South,184,10.0,17.0,45,0.00,,,0.02,,2013-07-29 01:12:00,
2013-07-28 19:26:00,70.0,47.0,29.52,SE,126,4.0,9.0,44,0.00,,,0.02,,2013-07-29 01:26:00,
2013-07-28 19:34:00,71.0,47.0,29.52,East,81,2.0,7.0,43,0.00,,,0.02,,2013-07-29 01:34:00,
2013-07-28 19:43:00,71.0,47.0,29.52,East,81,2.0,7.0,43,0.00,,,0.02,,2013-07-29 01:43:00,
2013-07-28 20:00:00,71.0,47.0,29.53,ESE,109,3.0,7.0,43,0.00,,,0.02,,2013-07-29 02:00:00,
2013-07-28 20:13:00,69.0,47.0,29.53,SSE,167,2.0,8.0,45,0.00,,,0.02,,2013-07-29 02:13:00,
2013-07-28 20:24:00,69.0,47.0,29.53,WSW,254,2.0,5.0,46,0.00,,,0.02,,2013-07-29 02:24:00,
2013-07-28 20:36:00,67.0,47.0,29.53,NW,312,5.0,8.0,48,0.00,,,0.02,,2013-07-29 02:36:00,
2013-07-28 20:45:00,67.0,47.0,29.53,NW,312,5.0,8.0,48,0.00,,,0.02,,2013-07-29 02:45:00,
2013-07-28 20:58:00,66.0,48.0,29.55,WNW,293,9.0,12.0,53,0.00,,,0.02,,2013-07-29 02:58:00,
2013-07-28 21:03:00,66.0,47.0,29.57,NNW,331,8.0,13.0,51,0.00,,,0.02,,2013-07-29 03:03:00,
2013-07-28 21:15:00,66.0,47.0,29.57,NNW,331,8.0,13.0,51,0.00,,,0.02,,2013-07-29 03:15:00,
2013-07-28 21:24:00,67.0,49.0,29.57,NW,321,13.0,21.0,52,0.00,,,0.02,,2013-07-29 03:24:00,
2013-07-28 21:58:00,65.0,49.0,29.60,NNW,342,13.0,25.0,56,0.00,,,0.02,,2013-07-29 03:58:00,
2013-07-28 22:02:00,64.0,48.0,29.60,NNW,347,12.0,25.0,57,0.00,,,0.02,,2013-07-29 04:02:00,
2013-07-28 22:12:00,64.0,48.0,29.60,NNW,347,12.0,25.0,57,0.00,,,0.02,,2013-07-29 04:12:00,
2013-07-28 22:22:00,63.0,48.0,29.59,NNW,344,9.0,14.0,58,0.00,,,0.02,,2013-07-29 04:22:00,
2013-07-28 22:32:00,62.0,48.0,29.60,NNE,28,11.0,19.0,61,0.00,,,0.02,,2013-07-29 04:32:00,
2013-07-28 22:43:00,62.0,48.0,29.60,NNE,28,11.0,19.0,61,0.00,,,0.02,,2013-07-29 04:43:00,
2013-07-28 22:53:00,62.0,48.0,29.60,North,5,13.0,19.0,61,0.00,,,0.02,,2013-07-29 04:53:00,
2013-07-28 23:02:00,62.0,48.0,29.60,NNW,340,11.0,18.0,60,0.00,,,0.02,,2013-07-29 05:02:00,
2013-07-28 23:12:00,62.0,48.0,29.60,NNW,340,11.0,18.0,60,0.00,,,0.02,,2013-07-29 05:12:00,
2013-07-28 23:22:00,62.0,48.0,29.60,WSW,244,4.0,12.0,61,0.00,,,0.02,,2013-07-29 05:22:00,
2013-07-28 23:32:00,62.0,49.0,29.61,South,189,9.0,12.0,62,0.00,,,0.02,,2013-07-29 05:32:00,
2013-07-28 23:42:00,62.0,49.0,29.61,South,189,9.0,12.0,62,0.00,,,0.02,,2013-07-29 05:42:00,
2013-07-28 23:53:00,60.0,48.0,29.61,SSE,167,10.0,14.0,65,0.00,,,0.02,,2013-07-29 05:53:00,